Time;durP1;ratioP1;P1;durP2;ratioP2;P2;SDS_P1;SDS_P2;PMS_P1;PMS_P2;Temp;Humidity;BMP_temperature;BMP_pressure;BME280_temperature;BME280_humidity;BME280_pressure;Samples;Min_cycle;Max_cycle;Signal;HPM_P1;HPM_P2
2021/05/30 00:00:16;;;;;;;4.78;2.47;;;19.70;96.70;;;;;;5116740;27;20066;-78
2021/05/30 00:02:47;;;;;;;6.03;2.42;;;19.70;96.70;;;;;;5118828;27;20063;-78
2021/05/30 00:05:17;;;;;;;5.70;2.05;;;19.70;96.70;;;;;;5097702;28;20695;-77
2021/05/30 00:07:46;;;;;;;4.80;2.17;;;19.60;96.70;;;;;;5119068;27;20027;-78
2021/05/30 00:10:16;;;;;;;5.28;2.42;;;19.60;96.70;;;;;;5106180;27;20031;-77
2021/05/30 00:12:48;;;;;;;4.90;2.03;;;19.70;96.70;;;;;;5099569;27;20909;-77
2021/05/30 00:15:18;;;;;;;4.18;1.90;;;19.70;96.70;;;;;;5101779;27;20072;-78
2021/05/30 00:17:49;;;;;;;3.30;1.70;;;19.70;96.70;;;;;;5099947;27;20032;-78
2021/05/30 00:20:18;;;;;;;5.00;1.67;;;19.70;96.70;;;;;;5115549;27;20681;-78
2021/05/30 00:22:47;;;;;;;6.68;1.50;;;19.70;96.70;;;;;;5099667;27;20134;-78
2021/05/30 00:25:15;;;;;;;4.35;1.40;;;19.60;96.70;;;;;;5098578;27;20390;-78
2021/05/30 00:27:43;;;;;;;2.63;1.17;;;19.50;96.70;;;;;;5105437;27;20058;-78
2021/05/30 00:30:13;;;;;;;3.13;0.82;;;19.40;96.70;;;;;;5083831;28;20060;-78
2021/05/30 00:32:41;;;;;;;2.00;0.85;;;19.40;96.70;;;;;;5101138;27;20119;-78
2021/05/30 00:35:11;;;;;;;0.85;0.50;;;19.40;96.70;;;;;;5099396;27;20068;-78
2021/05/30 00:37:40;;;;;;;1.98;0.55;;;19.30;96.70;;;;;;5104452;27;20067;-78
2021/05/30 00:40:10;;;;;;;1.65;0.50;;;19.30;96.70;;;;;;5097317;27;20051;-78
2021/05/30 00:42:40;;;;;;;0.85;0.52;;;19.30;96.70;;;;;;5103513;27;20048;-78
2021/05/30 00:45:12;;;;;;;1.40;0.60;;;19.30;96.70;;;;;;5100339;27;20055;-78
2021/05/30 00:47:41;;;;;;;1.35;0.60;;;19.20;96.70;;;;;;5100595;28;20706;-78
2021/05/30 00:50:12;;;;;;;2.95;0.50;;;19.00;96.70;;;;;;5098862;27;20398;-78
2021/05/30 00:52:41;;;;;;;1.40;0.60;;;19.10;96.70;;;;;;5094569;28;20047;-78
2021/05/30 00:55:13;;;;;;;1.02;0.35;;;19.20;96.70;;;;;;5097091;27;20036;-78
2021/05/30 00:57:41;;;;;;;1.05;0.40;;;19.10;96.70;;;;;;5088126;27;20409;-78
2021/05/30 01:00:13;;;;;;;1.77;0.82;;;19.10;96.70;;;;;;5100400;27;20044;-78
2021/05/30 01:02:41;;;;;;;0.50;0.40;;;19.10;96.70;;;;;;5098396;28;20039;-78
2021/05/30 01:05:12;;;;;;;0.30;0.20;;;19.10;96.70;;;;;;5104783;27;20035;-78
2021/05/30 01:07:46;;;;;;;1.45;0.43;;;19.10;96.70;;;;;;5098716;27;20139;-78
2021/05/30 01:10:25;;;;;;;0.88;0.25;;;19.10;96.70;;;;;;5105779;27;20509;-78
2021/05/30 01:12:56;;;;;;;0.93;0.40;;;19.10;96.70;;;;;;5105755;27;20031;-78
2021/05/30 01:15:31;;;;;;;2.50;0.30;;;19.20;96.70;;;;;;5088605;27;20047;-78
2021/05/30 01:18:18;;;;;;;2.08;0.50;;;19.20;96.70;;;;;;5085941;28;20040;-78
2021/05/30 01:21:04;;;;;;;0.85;0.28;;;19.20;96.70;;;;;;5100214;27;20066;-78
2021/05/30 01:23:36;;;;;;;1.40;0.40;;;19.20;96.70;;;;;;5097707;27;20126;-78
2021/05/30 01:26:05;;;;;;;1.70;0.40;;;19.30;96.70;;;;;;5104480;27;20035;-78
2021/05/30 01:28:35;;;;;;;1.38;0.50;;;19.30;96.70;;;;;;5098324;28;20124;-78
2021/05/30 01:31:04;;;;;;;0.98;0.30;;;19.30;96.70;;;;;;5100422;27;20036;-78
2021/05/30 01:33:34;;;;;;;1.35;0.20;;;19.40;96.70;;;;;;5099714;27;20028;-78
2021/05/30 01:36:05;;;;;;;3.03;0.30;;;19.50;96.70;;;;;;5102191;27;20032;-78
2021/05/30 01:38:38;;;;;;;2.20;0.30;;;19.50;96.70;;;;;;5102601;27;20463;-78
2021/05/30 01:41:07;;;;;;;2.25;0.40;;;19.50;96.70;;;;;;5075337;28;20047;-78
2021/05/30 01:43:37;;;;;;;1.75;0.32;;;19.50;96.70;;;;;;5098955;27;20093;-78
2021/05/30 01:46:07;;;;;;;1.30;0.38;;;19.50;96.70;;;;;;5101273;27;20052;-78
2021/05/30 01:48:37;;;;;;;2.88;0.40;;;19.50;96.70;;;;;;5102642;27;20063;-78
2021/05/30 01:51:07;;;;;;;2.10;0.40;;;19.50;96.70;;;;;;5095554;28;20159;-79
2021/05/30 01:53:46;;;;;;;2.05;0.30;;;19.50;96.70;;;;;;5098781;27;20047;-79
2021/05/30 01:59:05;;;;;;;0.20;0.20;;;19.60;96.70;;;;;;5101367;27;20511;-78
2021/05/30 02:01:37;;;;;;;0.40;0.20;;;19.60;96.70;;;;;;5101662;27;20572;-79
2021/05/30 02:04:08;;;;;;;1.70;0.40;;;19.60;96.70;;;;;;5099656;27;20054;-78
2021/05/30 02:06:39;;;;;;;0.47;0.30;;;19.60;96.70;;;;;;5096515;27;20394;-78
2021/05/30 02:09:10;;;;;;;1.00;0.30;;;19.60;96.70;;;;;;5103233;27;20039;-78
2021/05/30 02:11:40;;;;;;;3.50;0.30;;;19.60;96.70;;;;;;5101383;27;20493;-78
2021/05/30 02:14:11;;;;;;;1.77;0.47;;;19.60;96.70;;;;;;5100757;27;20564;-78
2021/05/30 02:16:42;;;;;;;1.20;0.38;;;19.60;96.70;;;;;;5097479;28;20051;-78
2021/05/30 02:19:12;;;;;;;0.70;0.30;;;19.60;96.70;;;;;;5100622;27;20043;-78
2021/05/30 02:21:43;;;;;;;0.95;0.30;;;19.60;96.70;;;;;;5080061;28;20051;-78
2021/05/30 02:24:16;;;;;;;1.98;0.50;;;19.60;96.70;;;;;;5097858;27;20051;-79
2021/05/30 02:26:47;;;;;;;0.65;0.30;;;19.60;96.70;;;;;;5096906;28;20059;-78
2021/05/30 02:29:28;;;;;;;2.47;0.47;;;19.60;96.70;;;;;;5098384;27;20485;-78
2021/05/30 02:31:58;;;;;;;0.60;0.47;;;19.60;96.70;;;;;;5085723;28;20130;-78
2021/05/30 02:34:28;;;;;;;1.15;0.32;;;19.60;96.70;;;;;;5097252;28;20108;-79
2021/05/30 02:36:58;;;;;;;1.40;0.50;;;19.60;96.70;;;;;;5086846;27;20039;-78
2021/05/30 02:39:29;;;;;;;2.35;0.60;;;19.60;96.70;;;;;;5112272;27;20147;-78
2021/05/30 02:41:59;;;;;;;0.40;0.30;;;19.50;96.70;;;;;;5099467;28;20039;-78
2021/05/30 02:44:29;;;;;;;1.38;0.40;;;19.50;96.70;;;;;;5096266;27;20147;-78
2021/05/30 02:46:58;;;;;;;0.82;0.43;;;19.50;96.70;;;;;;5100748;27;20046;-78
2021/05/30 02:49:29;;;;;;;1.65;0.63;;;19.60;96.70;;;;;;5119498;27;20046;-78
2021/05/30 02:52:00;;;;;;;0.82;0.50;;;19.60;96.70;;;;;;5101306;27;20399;-78
2021/05/30 02:54:32;;;;;;;1.60;0.35;;;19.50;96.70;;;;;;5097846;28;20134;-78
2021/05/30 02:57:02;;;;;;;2.28;0.60;;;19.60;96.70;;;;;;5100557;28;20589;-78
2021/05/30 02:59:31;;;;;;;1.67;0.55;;;19.60;96.70;;;;;;5096353;28;20079;-78
2021/05/30 03:02:01;;;;;;;0.50;0.38;;;19.60;96.70;;;;;;5101871;28;20806;-78
2021/05/30 03:04:31;;;;;;;2.88;0.35;;;19.60;96.70;;;;;;5096906;28;20039;-78
2021/05/30 03:07:02;;;;;;;1.35;0.30;;;19.60;96.70;;;;;;5099891;28;20048;-78
2021/05/30 03:09:33;;;;;;;1.25;0.30;;;19.60;96.70;;;;;;5099796;28;20047;-78
2021/05/30 03:12:04;;;;;;;0.75;0.40;;;19.60;96.70;;;;;;5099171;28;20047;-78
2021/05/30 03:14:34;;;;;;;1.35;0.40;;;19.60;96.70;;;;;;5103020;28;20047;-78
2021/05/30 03:17:04;;;;;;;0.47;0.43;;;19.60;96.70;;;;;;5101383;28;20443;-78
2021/05/30 03:19:34;;;;;;;0.93;0.35;;;19.60;96.70;;;;;;5076484;28;20040;-79
2021/05/30 03:22:04;;;;;;;2.05;0.30;;;19.60;96.70;;;;;;5095960;28;20421;-78
2021/05/30 03:24:36;;;;;;;0.93;0.40;;;19.60;96.70;;;;;;5094833;28;20480;-79
2021/05/30 03:27:07;;;;;;;1.05;0.30;;;19.60;96.70;;;;;;5093841;28;20117;-79
2021/05/30 03:29:37;;;;;;;0.65;0.30;;;19.50;96.70;;;;;;5098071;28;20041;-78
2021/05/30 03:32:08;;;;;;;0.68;0.30;;;19.50;96.70;;;;;;5094623;28;20043;-78
2021/05/30 03:34:38;;;;;;;1.42;0.40;;;19.50;96.70;;;;;;5098601;28;20497;-79
2021/05/30 03:37:08;;;;;;;1.52;0.55;;;19.50;96.70;;;;;;5096834;28;20047;-78
2021/05/30 03:39:41;;;;;;;0.60;0.30;;;19.60;96.70;;;;;;5097710;27;20043;-78
2021/05/30 03:42:14;;;;;;;0.60;0.43;;;19.60;96.70;;;;;;5095674;28;20051;-79
2021/05/30 03:44:43;;;;;;;1.00;0.40;;;19.60;96.70;;;;;;5100270;28;20146;-78
2021/05/30 03:47:13;;;;;;;0.73;0.30;;;19.60;96.70;;;;;;5102259;27;20040;-78
2021/05/30 03:49:41;;;;;;;1.75;0.45;;;19.60;96.70;;;;;;5102097;28;20058;-78
2021/05/30 03:52:10;;;;;;;1.05;0.40;;;19.60;96.70;;;;;;5096632;27;20497;-78
2021/05/30 03:54:42;;;;;;;1.77;0.45;;;19.60;96.70;;;;;;5099033;27;20043;-79
2021/05/30 03:57:11;;;;;;;0.85;0.40;;;19.60;96.70;;;;;;5104756;27;20397;-78
2021/05/30 03:59:42;;;;;;;0.73;0.30;;;19.60;96.70;;;;;;5107644;27;20075;-79
2021/05/30 04:02:12;;;;;;;0.52;0.40;;;19.60;96.70;;;;;;5100383;27;20531;-78
2021/05/30 04:04:42;;;;;;;2.67;0.30;;;19.60;96.70;;;;;;5097138;27;20060;-78
2021/05/30 04:07:12;;;;;;;2.67;0.30;;;19.60;96.70;;;;;;5100282;28;20491;-78
2021/05/30 04:09:43;;;;;;;0.80;0.30;;;19.60;96.60;;;;;;5089323;27;20158;-78
2021/05/30 04:12:13;;;;;;;0.82;0.40;;;19.60;96.70;;;;;;5115698;27;20608;-78
2021/05/30 04:14:41;;;;;;;0.70;0.30;;;19.60;96.70;;;;;;5097853;27;20027;-78
2021/05/30 04:17:10;;;;;;;0.82;0.40;;;19.70;96.70;;;;;;5101270;27;20146;-78
2021/05/30 04:19:40;;;;;;;1.13;0.50;;;19.80;96.30;;;;;;5089921;28;20043;-78
2021/05/30 04:22:10;;;;;;;0.80;0.47;;;19.80;96.60;;;;;;5104877;27;20039;-78
2021/05/30 04:24:42;;;;;;;1.00;0.60;;;19.80;96.40;;;;;;5100129;27;20027;-78
2021/05/30 04:27:12;;;;;;;1.50;0.55;;;19.80;96.00;;;;;;5098244;27;20240;-78
2021/05/30 04:29:41;;;;;;;0.85;0.43;;;19.90;96.20;;;;;;5079695;28;20558;-78
2021/05/30 04:32:11;;;;;;;1.35;0.32;;;19.90;95.50;;;;;;5108081;27;20081;-83
2021/05/30 04:34:41;;;;;;;0.95;0.40;;;20.00;95.60;;;;;;5101328;27;20040;-78
2021/05/30 04:37:11;;;;;;;1.02;0.40;;;20.00;95.40;;;;;;5097137;27;20040;-78
2021/05/30 04:39:42;;;;;;;1.33;0.50;;;20.00;94.70;;;;;;5083979;28;20076;-79
2021/05/30 04:42:12;;;;;;;0.80;0.45;;;20.00;94.20;;;;;;5102237;27;20052;-78
2021/05/30 04:44:43;;;;;;;1.30;0.40;;;20.00;94.10;;;;;;5097995;28;20167;-79
2021/05/30 04:47:14;;;;;;;1.90;0.50;;;20.00;93.70;;;;;;5102923;27;20039;-78
2021/05/30 04:49:43;;;;;;;1.17;0.50;;;20.00;93.70;;;;;;5094260;27;20500;-79
2021/05/30 04:52:12;;;;;;;1.17;0.40;;;20.00;92.80;;;;;;5099764;27;20093;-78
2021/05/30 04:54:42;;;;;;;4.80;1.27;;;20.00;93.30;;;;;;5100078;27;20089;-78
2021/05/30 04:57:11;;;;;;;1.77;0.40;;;20.00;92.70;;;;;;5100212;27;20054;-78
2021/05/30 04:59:39;;;;;;;1.15;0.50;;;20.00;92.90;;;;;;5096827;27;20096;-79
2021/05/30 05:02:07;;;;;;;1.27;0.45;;;19.90;92.50;;;;;;5090839;28;20050;-78
2021/05/30 05:04:36;;;;;;;2.45;0.40;;;19.90;92.10;;;;;;5089118;27;20092;-78
2021/05/30 05:07:04;;;;;;;2.00;0.30;;;19.90;92.20;;;;;;5099500;27;20067;-79
2021/05/30 05:09:32;;;;;;;1.52;0.30;;;19.90;92.50;;;;;;5082941;28;20135;-78
2021/05/30 05:12:02;;;;;;;0.50;0.30;;;19.90;92.50;;;;;;5095867;27;20085;-78
2021/05/30 05:14:33;;;;;;;2.15;0.45;;;20.00;92.00;;;;;;5083117;27;20051;-79
2021/05/30 05:17:03;;;;;;;0.57;0.30;;;20.00;92.40;;;;;;5086961;28;20054;-79
2021/05/30 05:19:31;;;;;;;0.82;0.40;;;20.00;92.40;;;;;;5118337;27;20334;-78
2021/05/30 05:21:59;;;;;;;1.13;0.60;;;20.00;91.70;;;;;;5099276;27;20413;-79
2021/05/30 05:24:27;;;;;;;1.88;0.50;;;20.00;91.70;;;;;;5097746;27;20085;-78
2021/05/30 05:26:56;;;;;;;1.05;0.45;;;20.00;91.90;;;;;;5097125;28;20046;-79
2021/05/30 05:29:25;;;;;;;0.70;0.50;;;20.00;91.90;;;;;;5097715;27;20035;-78
2021/05/30 05:31:54;;;;;;;1.15;0.40;;;20.00;91.40;;;;;;5098447;27;20059;-78
2021/05/30 05:34:22;;;;;;;1.58;0.50;;;20.00;90.80;;;;;;5100481;27;20039;-78
2021/05/30 05:36:51;;;;;;;1.52;0.40;;;20.00;89.70;;;;;;5084521;27;20469;-78
2021/05/30 05:39:19;;;;;;;1.52;0.50;;;20.00;90.00;;;;;;5098525;28;20043;-78
2021/05/30 05:41:52;;;;;;;0.60;0.30;;;20.00;89.50;;;;;;5099757;27;20420;-79
2021/05/30 05:44:20;;;;;;;0.50;0.40;;;20.10;89.70;;;;;;5098162;27;20054;-78
2021/05/30 05:46:49;;;;;;;0.77;0.45;;;20.20;89.00;;;;;;5099602;28;20055;-79
2021/05/30 05:49:18;;;;;;;0.70;0.30;;;20.20;89.40;;;;;;5112660;27;20040;-79
2021/05/30 05:51:46;;;;;;;0.70;0.40;;;20.20;89.20;;;;;;5099449;27;20043;-79
2021/05/30 05:54:14;;;;;;;1.05;0.30;;;20.30;88.80;;;;;;5102405;27;20046;-78
2021/05/30 05:56:42;;;;;;;0.60;0.40;;;20.30;88.20;;;;;;5097751;27;20043;-79
2021/05/30 05:59:10;;;;;;;2.13;0.50;;;20.30;88.90;;;;;;5100521;28;20048;-78
2021/05/30 06:01:38;;;;;;;1.02;0.30;;;20.30;88.10;;;;;;5100535;27;20504;-78
2021/05/30 06:04:07;;;;;;;0.30;0.20;;;20.40;88.70;;;;;;5104222;27;20040;-78
2021/05/30 06:06:35;;;;;;;1.42;0.40;;;20.40;88.20;;;;;;5084718;27;20046;-78
2021/05/30 06:09:04;;;;;;;3.03;0.45;;;20.40;88.10;;;;;;5102465;27;20047;-78
2021/05/30 06:11:32;;;;;;;1.23;0.40;;;20.40;88.00;;;;;;5099097;27;20047;-79
2021/05/30 06:14:01;;;;;;;0.80;0.47;;;20.40;87.90;;;;;;5098817;27;20039;-79
2021/05/30 06:16:29;;;;;;;0.95;0.60;;;20.50;88.00;;;;;;5094869;27;20138;-79
2021/05/30 06:18:58;;;;;;;1.13;0.40;;;20.50;87.20;;;;;;5100157;27;20083;-79
2021/05/30 06:21:29;;;;;;;1.00;0.38;;;20.50;86.80;;;;;;5097700;27;20051;-78
2021/05/30 06:23:58;;;;;;;1.08;0.40;;;20.50;87.00;;;;;;5098731;28;20096;-79
2021/05/30 06:26:26;;;;;;;1.23;0.40;;;20.50;86.80;;;;;;5099228;27;20394;-78
2021/05/30 06:28:55;;;;;;;0.60;0.40;;;20.50;86.40;;;;;;5099253;27;20094;-78
2021/05/30 06:31:24;;;;;;;0.50;0.20;;;20.50;86.10;;;;;;5099083;28;20047;-78
2021/05/30 06:33:52;;;;;;;0.85;0.40;;;20.50;85.90;;;;;;5098001;27;20051;-78
2021/05/30 06:36:21;;;;;;;1.70;0.40;;;20.50;85.30;;;;;;5111435;27;20059;-78
2021/05/30 06:38:50;;;;;;;1.10;0.35;;;20.50;85.20;;;;;;5100802;27;20859;-78
2021/05/30 06:41:18;;;;;;;0.90;0.40;;;20.50;84.80;;;;;;5101558;27;20094;-79
2021/05/30 06:43:50;;;;;;;2.88;0.60;;;20.60;85.20;;;;;;5102074;27;20392;-78
2021/05/30 06:46:18;;;;;;;1.75;0.30;;;20.60;85.20;;;;;;5082764;28;20043;-78
2021/05/30 06:48:47;;;;;;;1.08;0.30;;;20.60;84.40;;;;;;5098093;28;20513;-78
2021/05/30 06:51:16;;;;;;;1.42;0.38;;;20.60;84.30;;;;;;5113510;27;20451;-78
2021/05/30 06:53:46;;;;;;;0.38;0.30;;;20.70;84.60;;;;;;5097401;28;20124;-78
2021/05/30 06:56:16;;;;;;;0.75;0.30;;;20.70;84.40;;;;;;5099219;27;20039;-78
2021/05/30 06:58:45;;;;;;;0.50;0.30;;;20.70;84.50;;;;;;5098959;28;20119;-79
2021/05/30 07:01:14;;;;;;;1.13;0.38;;;20.80;83.70;;;;;;5104571;28;20138;-78
2021/05/30 07:03:42;;;;;;;1.63;0.30;;;20.80;82.60;;;;;;5100828;28;20554;-78
2021/05/30 07:06:11;;;;;;;0.82;0.30;;;20.90;84.10;;;;;;5100225;28;20040;-78
2021/05/30 07:08:39;;;;;;;1.40;0.43;;;21.00;83.70;;;;;;5098818;28;20044;-78
2021/05/30 07:11:07;;;;;;;1.65;0.77;;;21.00;82.40;;;;;;5099746;28;20081;-79
2021/05/30 07:13:40;;;;;;;0.63;0.30;;;21.00;82.00;;;;;;5084854;28;20073;-78
2021/05/30 07:16:08;;;;;;;0.68;0.35;;;21.10;82.50;;;;;;5099908;28;20126;-79
2021/05/30 07:18:36;;;;;;;1.92;0.38;;;21.10;81.10;;;;;;5099613;28;20209;-79
2021/05/30 07:21:05;;;;;;;0.63;0.40;;;21.10;81.40;;;;;;5105296;27;20054;-79
2021/05/30 07:23:34;;;;;;;0.70;0.28;;;21.20;80.70;;;;;;5101052;27;20035;-78
2021/05/30 07:26:03;;;;;;;0.70;0.35;;;21.20;80.40;;;;;;5102668;27;20142;-79
2021/05/30 07:28:31;;;;;;;0.70;0.47;;;21.20;81.30;;;;;;5087997;27;20068;-78
2021/05/30 07:31:01;;;;;;;1.85;0.35;;;21.30;80.90;;;;;;5104374;27;20032;-79
2021/05/30 07:33:29;;;;;;;1.83;0.30;;;21.30;79.90;;;;;;5100643;27;20035;-78
2021/05/30 07:35:58;;;;;;;1.48;0.30;;;21.30;80.50;;;;;;5100233;27;20383;-78
2021/05/30 07:38:26;;;;;;;0.95;0.30;;;21.40;80.70;;;;;;5101956;27;20043;-78
2021/05/30 07:40:54;;;;;;;0.57;0.20;;;21.50;80.30;;;;;;5105706;27;20051;-78
2021/05/30 07:43:22;;;;;;;1.63;0.55;;;21.50;80.70;;;;;;5101751;27;20043;-78
2021/05/30 07:45:50;;;;;;;0.65;0.30;;;21.50;80.20;;;;;;5101094;27;20040;-78
2021/05/30 07:48:20;;;;;;;3.05;0.45;;;21.50;79.00;;;;;;5100630;28;20067;-79
2021/05/30 07:50:49;;;;;;;0.90;0.30;;;21.50;79.10;;;;;;5085078;28;20233;-79
2021/05/30 07:53:17;;;;;;;3.97;0.40;;;21.60;80.00;;;;;;5099504;27;20043;-80
2021/05/30 07:55:45;;;;;;;0.75;0.32;;;21.60;79.50;;;;;;5105169;27;20051;-79
2021/05/30 07:58:13;;;;;;;1.10;0.30;;;21.70;79.20;;;;;;5105959;27;20052;-80
2021/05/30 08:00:41;;;;;;;2.25;0.50;;;21.80;79.00;;;;;;5102611;27;20052;-79
2021/05/30 08:03:09;;;;;;;2.55;0.50;;;21.80;79.60;;;;;;5100963;27;20050;-79
2021/05/30 08:05:38;;;;;;;2.38;0.50;;;21.80;78.20;;;;;;5102709;27;20043;-78
2021/05/30 08:08:06;;;;;;;0.73;0.30;;;21.80;78.80;;;;;;5102037;27;20032;-77
2021/05/30 08:10:34;;;;;;;1.33;0.38;;;21.90;78.10;;;;;;5098888;27;20039;-77
2021/05/30 08:13:04;;;;;;;1.27;0.40;;;21.90;77.20;;;;;;5101363;27;20149;-78
2021/05/30 08:15:32;;;;;;;2.97;0.40;;;22.00;76.80;;;;;;5103534;27;20040;-77
2021/05/30 08:18:00;;;;;;;2.08;0.40;;;22.00;77.20;;;;;;5100842;27;20035;-79
2021/05/30 08:20:29;;;;;;;0.30;0.22;;;22.10;77.70;;;;;;5099656;28;20862;-79
2021/05/30 08:22:59;;;;;;;2.40;0.40;;;22.10;78.40;;;;;;5099529;28;20048;-79
2021/05/30 08:25:28;;;;;;;1.38;0.30;;;22.20;77.30;;;;;;5101368;27;20052;-77
2021/05/30 08:27:56;;;;;;;1.45;0.50;;;22.30;76.90;;;;;;5103193;27;20557;-79
2021/05/30 08:30:24;;;;;;;1.98;0.30;;;22.20;76.00;;;;;;5098125;27;20059;-79
2021/05/30 08:32:55;;;;;;;2.13;0.50;;;22.20;78.00;;;;;;5103108;27;20089;-79
2021/05/30 08:35:23;;;;;;;2.90;0.60;;;22.30;77.30;;;;;;5099919;27;20556;-79
2021/05/30 08:37:51;;;;;;;1.88;0.40;;;22.40;76.70;;;;;;5094710;27;20031;-78
2021/05/30 08:40:23;;;;;;;0.82;0.13;;;22.40;75.90;;;;;;5103543;27;20123;-78
2021/05/30 08:42:51;;;;;;;2.47;0.80;;;22.40;75.70;;;;;;5103275;27;20031;-78
2021/05/30 08:45:20;;;;;;;0.68;0.30;;;22.60;75.10;;;;;;5098252;27;20119;-79
2021/05/30 08:47:49;;;;;;;2.85;0.40;;;22.60;74.30;;;;;;5110820;27;20043;-77
2021/05/30 08:50:18;;;;;;;0.95;0.30;;;22.60;74.00;;;;;;5100648;27;20043;-78
2021/05/30 08:52:46;;;;;;;2.25;0.40;;;22.70;74.30;;;;;;5102668;27;20055;-78
2021/05/30 08:55:15;;;;;;;0.40;0.30;;;22.80;74.30;;;;;;5096216;27;20194;-77
2021/05/30 08:57:44;;;;;;;1.25;0.40;;;22.90;74.50;;;;;;5099886;27;20130;-77
2021/05/30 09:00:21;;;;;;;0.98;0.38;;;23.00;73.80;;;;;;5097895;28;20039;-77
2021/05/30 09:03:13;;;;;;;0.70;0.30;;;22.90;74.30;;;;;;5097778;27;20043;-78
2021/05/30 09:05:42;;;;;;;0.40;0.30;;;22.90;74.20;;;;;;5099739;27;20040;-78
2021/05/30 09:08:27;;;;;;;0.98;0.35;;;22.90;74.50;;;;;;5099842;27;20035;-76
2021/05/30 09:10:56;;;;;;;3.13;1.70;;;22.90;75.30;;;;;;5100178;27;20462;-77
2021/05/30 09:13:27;;;;;;;2.67;1.50;;;23.00;74.60;;;;;;5085271;28;20139;-77
2021/05/30 09:18:33;;;;;;;1.35;0.60;;;23.10;73.30;;;;;;5097923;27;20044;-77
2021/05/30 09:21:05;;;;;;;0.77;0.30;;;23.10;73.10;;;;;;5100536;27;20096;-77
2021/05/30 09:23:36;;;;;;;1.05;0.30;;;23.00;73.00;;;;;;5109826;27;20051;-77
2021/05/30 09:26:16;;;;;;;1.67;0.30;;;23.00;72.40;;;;;;5103566;27;20428;-76
2021/05/30 09:29:04;;;;;;;2.00;0.40;;;23.00;73.20;;;;;;5100285;27;20044;-77
2021/05/30 09:31:34;;;;;;;0.82;0.45;;;23.00;71.60;;;;;;5096079;28;20036;-77
2021/05/30 09:34:24;;;;;;;0.70;0.35;;;23.00;72.10;;;;;;5096391;27;20092;-77
2021/05/30 09:36:53;;;;;;;1.30;0.65;;;23.10;73.50;;;;;;5099035;27;20044;-78
2021/05/30 09:39:33;;;;;;;1.52;0.40;;;23.10;72.50;;;;;;5100545;27;20039;-78
2021/05/30 09:42:31;;;;;;;1.38;0.50;;;23.20;71.30;;;;;;5097162;27;20138;-77
2021/05/30 09:45:03;;;;;;;4.07;0.70;;;23.30;72.20;;;;;;5081911;28;20690;-77
2021/05/30 09:47:32;;;;;;;0.80;0.40;;;23.30;72.10;;;;;;5098697;27;20035;-76
2021/05/30 09:50:00;;;;;;;1.02;0.30;;;23.40;71.60;;;;;;5097479;27;20501;-76
2021/05/30 09:52:48;;;;;;;0.65;0.35;;;23.40;71.60;;;;;;5096309;28;20130;-77
2021/05/30 09:55:17;;;;;;;1.33;0.30;;;23.40;71.40;;;;;;5089777;27;20069;-78
2021/05/30 09:58:19;;;;;;;0.88;0.30;;;23.50;71.10;;;;;;5097348;27;20058;-78
2021/05/30 10:01:01;;;;;;;1.00;0.30;;;23.70;71.70;;;;;;5093881;27;20155;-77
2021/05/30 10:03:30;;;;;;;1.63;0.35;;;23.70;70.90;;;;;;5079399;28;20146;-77
2021/05/30 10:06:00;;;;;;;1.38;0.40;;;23.60;71.20;;;;;;5095123;28;20034;-78
2021/05/30 10:08:29;;;;;;;1.77;0.40;;;23.70;71.30;;;;;;5097140;27;20046;-78
2021/05/30 10:10:57;;;;;;;0.80;0.40;;;23.90;72.00;;;;;;5102156;27;20040;-78
2021/05/30 10:13:27;;;;;;;1.75;0.60;;;24.00;72.00;;;;;;5083841;28;20143;-78
2021/05/30 10:15:55;;;;;;;0.68;0.55;;;24.10;71.30;;;;;;5094710;27;20065;-78
2021/05/30 10:18:28;;;;;;;1.98;0.60;;;24.00;70.90;;;;;;5085206;27;20108;-78
2021/05/30 10:20:57;;;;;;;1.65;0.30;;;24.10;71.70;;;;;;5094744;28;20544;-78
2021/05/30 10:23:27;;;;;;;1.40;0.50;;;24.20;71.40;;;;;;5094586;28;20056;-78
2021/05/30 10:26:11;;;;;;;1.00;0.52;;;24.30;71.00;;;;;;5096889;27;20075;-78
2021/05/30 10:28:47;;;;;;;1.65;0.40;;;24.40;71.10;;;;;;5088211;28;20101;-78
2021/05/30 10:31:21;;;;;;;2.17;0.50;;;24.50;70.90;;;;;;5092838;27;20123;-78
2021/05/30 10:34:24;;;;;;;0.52;0.50;;;24.40;69.10;;;;;;5101009;27;20040;-78
2021/05/30 10:37:28;;;;;;;0.95;0.30;;;24.40;70.30;;;;;;5056921;28;20048;-78
2021/05/30 10:39:59;;;;;;;0.80;0.40;;;24.50;69.70;;;;;;5061484;28;20040;-78
2021/05/30 10:42:28;;;;;;;1.23;0.52;;;24.50;69.50;;;;;;5057089;28;20056;-79
2021/05/30 10:45:00;;;;;;;1.15;0.60;;;24.50;69.00;;;;;;5054083;28;20051;-78
2021/05/30 10:48:19;;;;;;;1.23;0.40;;;24.50;68.50;;;;;;5053532;28;20045;-78
2021/05/30 10:51:09;;;;;;;0.93;0.50;;;24.60;67.20;;;;;;5039383;28;20098;-78
2021/05/30 10:53:43;;;;;;;1.25;0.50;;;24.80;67.80;;;;;;5056436;28;20048;-78
2021/05/30 10:56:24;;;;;;;2.47;0.60;;;24.90;69.30;;;;;;5055862;28;20051;-78
2021/05/30 10:59:21;;;;;;;1.38;0.50;;;25.00;68.90;;;;;;5038435;28;20044;-78
2021/05/30 11:01:51;;;;;;;0.90;0.50;;;25.20;68.50;;;;;;5039457;28;20088;-78
2021/05/30 11:04:36;;;;;;;1.83;0.43;;;25.20;68.90;;;;;;5035494;28;20131;-78
2021/05/30 11:07:39;;;;;;;1.20;0.40;;;25.20;68.40;;;;;;5063146;28;20052;-78
2021/05/30 11:10:19;;;;;;;0.73;0.40;;;25.20;67.80;;;;;;5095617;28;20052;-78
2021/05/30 11:12:55;;;;;;;0.82;0.40;;;25.20;66.90;;;;;;5086697;28;20047;-78
2021/05/30 11:15:29;;;;;;;1.02;0.50;;;25.20;68.70;;;;;;5093363;28;20042;-78
2021/05/30 11:17:59;;;;;;;2.45;0.50;;;25.60;68.30;;;;;;5091641;28;20067;-78
2021/05/30 11:20:38;;;;;;;1.27;0.57;;;25.80;67.60;;;;;;5096449;28;20066;-78
2021/05/30 11:23:11;;;;;;;1.48;0.32;;;25.90;68.50;;;;;;5094357;28;20044;-79
2021/05/30 11:25:47;;;;;;;1.90;0.50;;;25.90;67.80;;;;;;5099552;28;20036;-78
2021/05/30 11:28:17;;;;;;;0.45;0.40;;;25.90;68.80;;;;;;5082895;28;20562;-78
2021/05/30 11:30:54;;;;;;;0.60;0.52;;;25.90;68.10;;;;;;5094117;28;20039;-78
2021/05/30 11:33:46;;;;;;;1.10;0.40;;;25.90;67.30;;;;;;5082686;28;20138;-78
2021/05/30 11:36:29;;;;;;;2.28;0.63;;;25.90;68.30;;;;;;5095031;28;20067;-78
2021/05/30 11:39:05;;;;;;;0.75;0.45;;;26.20;67.20;;;;;;5096227;28;20039;-78
2021/05/30 11:41:37;;;;;;;0.93;0.32;;;26.40;66.60;;;;;;5100112;28;20255;-77
2021/05/30 11:44:09;;;;;;;1.15;0.45;;;26.50;67.80;;;;;;5114165;27;20071;-78
2021/05/30 11:46:40;;;;;;;1.02;0.30;;;26.40;67.60;;;;;;5099173;28;20071;-78
2021/05/30 11:49:13;;;;;;;1.67;0.55;;;26.30;66.70;;;;;;5097863;28;20046;-78
2021/05/30 11:51:52;;;;;;;0.88;0.60;;;26.40;66.90;;;;;;5092813;28;20058;-78
2021/05/30 11:54:22;;;;;;;1.17;0.38;;;26.60;65.60;;;;;;5098139;28;20075;-78
2021/05/30 11:56:52;;;;;;;1.77;0.40;;;26.90;65.90;;;;;;5096532;28;20066;-78
2021/05/30 11:59:28;;;;;;;0.70;0.38;;;27.10;65.30;;;;;;5096702;28;20051;-79
2021/05/30 12:01:56;;;;;;;0.57;0.45;;;27.10;66.10;;;;;;5113180;28;20524;-78
2021/05/30 12:04:31;;;;;;;0.85;0.55;;;27.00;65.20;;;;;;5098598;28;20509;-79
2021/05/30 12:07:00;;;;;;;1.13;0.63;;;27.20;65.50;;;;;;5096423;28;20047;-78
2021/05/30 12:09:48;;;;;;;2.40;0.80;;;27.20;66.20;;;;;;5105921;27;20048;-78
2021/05/30 12:12:29;;;;;;;3.90;2.95;;;27.50;64.60;;;;;;5099621;28;20050;-79
2021/05/30 12:15:12;;;;;;;2.28;0.82;;;27.50;65.20;;;;;;5098958;28;20058;-78
2021/05/30 12:17:44;;;;;;;1.08;0.85;;;27.60;65.30;;;;;;5102274;28;20054;-78
2021/05/30 12:20:18;;;;;;;1.15;0.50;;;27.80;66.10;;;;;;5098049;27;20044;-78
2021/05/30 12:22:47;;;;;;;0.75;0.50;;;27.70;64.90;;;;;;5100038;27;20040;-79
2021/05/30 12:25:18;;;;;;;3.95;0.70;;;27.80;64.30;;;;;;5103384;27;20039;-78
2021/05/30 12:27:47;;;;;;;1.33;0.40;;;27.70;64.20;;;;;;5084419;28;20059;-79
2021/05/30 12:30:18;;;;;;;0.40;0.30;;;27.80;63.80;;;;;;5102588;27;20146;-78
2021/05/30 12:32:50;;;;;;;1.95;0.50;;;27.80;63.20;;;;;;5113582;27;20717;-78
2021/05/30 12:35:42;;;;;;;1.05;0.60;;;27.80;63.70;;;;;;5097916;27;20039;-78
2021/05/30 12:38:11;;;;;;;1.65;0.40;;;27.60;63.90;;;;;;5093943;27;20044;-78
2021/05/30 12:40:41;;;;;;;1.75;0.40;;;27.50;63.30;;;;;;5098915;27;20739;-78
2021/05/30 12:43:11;;;;;;;0.68;0.40;;;27.70;63.60;;;;;;5101444;28;20131;-78
2021/05/30 12:46:01;;;;;;;0.47;0.40;;;27.90;64.20;;;;;;5101366;28;20672;-78
2021/05/30 12:48:43;;;;;;;2.42;0.40;;;28.00;63.50;;;;;;5096654;28;20051;-79
2021/05/30 12:51:17;;;;;;;0.90;0.40;;;28.00;64.30;;;;;;5099083;27;20483;-78
2021/05/30 12:53:46;;;;;;;0.52;0.40;;;28.00;63.20;;;;;;5081275;28;20063;-79
2021/05/30 12:56:16;;;;;;;2.08;0.40;;;27.90;62.80;;;;;;5100943;27;20443;-79
2021/05/30 12:58:45;;;;;;;0.70;0.50;;;27.90;63.20;;;;;;5083641;28;20289;-78
2021/05/30 13:01:22;;;;;;;0.40;0.40;;;28.00;64.00;;;;;;5097099;28;20070;-79
2021/05/30 13:03:50;;;;;;;;;;;28.10;63.20;;;;;;5102520;27;20035;-78
2021/05/30 13:06:19;;;;;;;0.82;0.50;;;28.30;63.50;;;;;;5111733;27;20371;-79
2021/05/30 13:08:58;;;;;;;1.52;0.45;;;28.80;63.00;;;;;;5099914;27;20081;-79
2021/05/30 13:11:32;;;;;;;1.73;0.47;;;29.10;62.10;;;;;;5098322;28;20505;-79
2021/05/30 13:14:01;;;;;;;0.55;0.40;;;29.40;62.50;;;;;;5098532;27;20050;-79
2021/05/30 13:16:30;;;;;;;0.82;0.40;;;29.50;62.70;;;;;;5087474;28;20063;-78